Arnaudville, Louisiana
Current Conditions -  °F | °C
As of 12:53 PM on Sunday 23 Nov 2014 (Local Time) from KLFT Reporting Station
Scattered Clouds Scattered Clouds  
Wind Chill: 72°   Ceiling: Unl
Heat Index: 72°   Visibility: 10mi
Dew Point: 61°   Wind: 23mph
Humidity: 68%   Direction: 220°SW
Pressure: 29.63"   Gusts: 35mph
Location:  30.4°N, 91.93°W
Report Text: KLFT 231853Z 22020G30KT 10SM FEW028 SCT034 22/16 A2963 RMK AO2 PK WND 25030/1846 SLP032 T02220161 $
Loading
Personal Weather Stations






























Interactive Weather Map New forecast layout! Learn more

10-Day Weather Forecast

Advertisements
Track Severe Weather on mobile